createdAt,value
2018-12-27T00:01:21.747Z,14.40
2018-12-27T00:05:26.749Z,14.93
2018-12-27T00:09:31.788Z,14.53
2018-12-27T00:13:36.912Z,14.07
2018-12-27T00:17:41.890Z,13.70
2018-12-27T00:21:46.829Z,15.47
2018-12-27T00:25:52.278Z,15.17
2018-12-27T00:30:00.722Z,14.50
2018-12-27T00:34:07.394Z,14.53
2018-12-27T00:38:12.496Z,15.20
2018-12-27T00:42:17.539Z,13.50
2018-12-27T00:46:22.583Z,15.30
2018-12-27T00:50:27.715Z,14.87
2018-12-27T00:54:32.730Z,15.20
2018-12-27T00:58:37.858Z,15.43
2018-12-27T01:02:42.871Z,16.03
2018-12-27T01:06:47.886Z,16.00
2018-12-27T01:10:53.274Z,15.00
2018-12-27T01:14:58.380Z,14.80
2018-12-27T01:19:03.744Z,13.33
2018-12-27T01:23:08.782Z,13.33
2018-12-27T01:27:13.821Z,13.03
2018-12-27T01:31:18.845Z,12.97
2018-12-27T01:35:23.888Z,14.50
2018-12-27T01:39:29.035Z,15.07
2018-12-27T01:43:34.066Z,14.38
2018-12-27T01:47:39.183Z,14.13
2018-12-27T01:51:44.232Z,15.07
2018-12-27T01:55:49.305Z,13.97
2018-12-27T01:59:55.104Z,14.55
2018-12-27T02:04:00.214Z,14.53
2018-12-27T02:08:05.241Z,13.70
2018-12-27T02:12:10.402Z,15.00
2018-12-27T02:16:15.415Z,14.10
2018-12-27T02:20:21.483Z,13.73
2018-12-27T02:24:26.565Z,14.30
2018-12-27T02:28:31.567Z,13.63
2018-12-27T02:32:36.855Z,13.77
2018-12-27T02:36:41.908Z,14.73
2018-12-27T02:40:46.994Z,14.53
2018-12-27T02:44:52.030Z,13.50
2018-12-27T02:48:57.272Z,14.13
2018-12-27T02:53:02.412Z,16.10
2018-12-27T02:57:07.451Z,15.37
2018-12-27T03:01:12.523Z,14.47
2018-12-27T03:05:17.564Z,14.57
2018-12-27T03:09:22.611Z,15.07
2018-12-27T03:13:27.737Z,13.87
2018-12-27T03:17:32.779Z,14.43
2018-12-27T03:21:37.821Z,13.37
2018-12-27T03:25:42.956Z,14.63
2018-12-27T03:29:47.998Z,15.10
2018-12-27T03:33:53.112Z,15.47
2018-12-27T03:37:58.135Z,15.17
2018-12-27T03:42:03.139Z,15.30
2018-12-27T03:46:08.209Z,13.30
2018-12-27T03:50:13.305Z,15.70
2018-12-27T03:54:18.348Z,15.47
2018-12-27T03:58:23.536Z,16.27
2018-12-27T04:02:28.615Z,14.70
2018-12-27T04:06:33.679Z,14.97
2018-12-27T04:10:38.725Z,16.83
2018-12-27T04:14:43.866Z,16.17
2018-12-27T04:18:49.142Z,16.73
2018-12-27T04:22:54.531Z,14.13
2018-12-27T04:26:59.594Z,13.90
2018-12-27T04:31:04.952Z,15.83
2018-12-27T04:35:10.300Z,12.70
2018-12-27T04:39:15.409Z,15.00
2018-12-27T04:43:31.196Z,15.00
2018-12-27T04:47:36.247Z,15.50
2018-12-27T04:51:41.353Z,15.43
2018-12-27T04:55:46.405Z,13.00
2018-12-27T04:59:51.463Z,13.73
2018-12-27T05:03:56.516Z,15.70
2018-12-27T05:08:01.662Z,15.57
2018-12-27T05:12:06.733Z,15.43
2018-12-27T05:16:11.771Z,12.50
2018-12-27T05:20:16.917Z,12.33
2018-12-27T05:24:22.006Z,11.97
2018-12-27T05:28:27.081Z,13.97
2018-12-27T05:32:32.068Z,14.57
2018-12-27T05:36:37.037Z,13.97
2018-12-27T05:40:42.079Z,12.47
2018-12-27T05:44:47.157Z,13.70
2018-12-27T05:48:52.184Z,12.67
2018-12-27T05:52:57.249Z,11.13
2018-12-27T05:57:02.309Z,14.30
2018-12-27T06:01:07.353Z,13.77
2018-12-27T06:05:12.459Z,14.47
2018-12-27T06:09:17.556Z,14.80
2018-12-27T06:13:24.088Z,14.83
2018-12-27T06:17:29.222Z,13.63
2018-12-27T06:21:34.397Z,13.63
2018-12-27T06:25:51.293Z,11.13
2018-12-27T06:29:56.534Z,12.60
2018-12-27T06:34:01.613Z,12.30
2018-12-27T06:38:06.713Z,10.90
2018-12-27T06:42:11.860Z,11.67
2018-12-27T06:46:16.843Z,12.33
2018-12-27T06:50:21.802Z,13.50
2018-12-27T06:54:26.899Z,17.03
2018-12-27T06:58:37.719Z,15.23
2018-12-27T07:02:57.806Z,15.07
2018-12-27T07:07:02.904Z,18.07
2018-12-27T07:11:07.970Z,17.17
2018-12-27T07:15:13.115Z,13.10
2018-12-27T07:19:19.790Z,14.60
2018-12-27T07:23:24.936Z,10.70
2018-12-27T07:27:29.944Z,13.80
2018-12-27T07:31:34.972Z,15.17
2018-12-27T07:35:40.033Z,15.13
2018-12-27T07:39:45.085Z,19.40
2018-12-27T07:43:51.860Z,16.90
2018-12-27T07:47:56.938Z,13.20
2018-12-27T07:52:01.996Z,14.43
2018-12-27T07:56:07.066Z,14.97
2018-12-27T08:00:12.147Z,15.57
2018-12-27T08:04:17.249Z,11.83
2018-12-27T08:08:22.223Z,11.07
2018-12-27T08:12:27.260Z,13.37
2018-12-27T08:16:32.337Z,14.23
2018-12-27T08:20:48.432Z,13.07
2018-12-27T08:24:53.521Z,11.50
2018-12-27T08:28:58.644Z,12.00
2018-12-27T08:33:05.511Z,11.77
2018-12-27T08:37:10.543Z,10.27
2018-12-27T08:41:15.596Z,10.67
2018-12-27T08:45:20.783Z,11.00
2018-12-27T08:49:25.938Z,8.37
2018-12-27T08:53:31.060Z,8.93
2018-12-27T08:57:36.165Z,7.23
2018-12-27T09:01:41.255Z,7.70
2018-12-27T09:05:46.436Z,7.27
2018-12-27T09:09:51.509Z,7.13
2018-12-27T09:13:56.862Z,6.10
2018-12-27T09:18:01.919Z,6.53
2018-12-27T09:22:07.174Z,7.20
2018-12-27T09:26:31.337Z,7.00
2018-12-27T09:30:48.447Z,6.97
2018-12-27T09:35:02.282Z,6.00
2018-12-27T09:39:07.658Z,6.07
2018-12-27T09:43:12.660Z,6.87
2018-12-27T09:47:17.711Z,7.27
2018-12-27T09:51:22.843Z,6.67
2018-12-27T09:55:27.830Z,6.30
2018-12-27T09:59:32.921Z,5.93
2018-12-27T10:03:37.998Z,6.30
2018-12-27T10:07:43.061Z,5.92
2018-12-27T10:11:48.177Z,5.77
2018-12-27T10:15:53.332Z,5.70
2018-12-27T10:19:58.405Z,6.60
2018-12-27T10:24:03.341Z,5.57
2018-12-27T10:28:08.298Z,6.10
2018-12-27T10:32:13.319Z,5.30
2018-12-27T10:36:18.396Z,6.20
2018-12-27T10:40:23.340Z,6.00
2018-12-27T10:44:28.409Z,5.73
2018-12-27T10:48:33.337Z,5.87
2018-12-27T10:52:38.396Z,5.93
2018-12-27T10:56:43.509Z,6.13
2018-12-27T11:01:00.096Z,5.63
2018-12-27T11:05:05.577Z,5.90
2018-12-27T11:09:10.899Z,5.60
2018-12-27T11:13:15.987Z,4.87
2018-12-27T11:17:21.623Z,5.20
2018-12-27T11:21:26.674Z,5.43
2018-12-27T11:25:31.742Z,5.63
2018-12-27T11:29:36.677Z,6.23
2018-12-27T11:33:41.754Z,5.60
2018-12-27T11:37:46.803Z,5.77
2018-12-27T11:41:51.853Z,6.77
2018-12-27T11:45:56.826Z,6.33
2018-12-27T11:50:01.892Z,6.20
2018-12-27T11:54:06.968Z,6.40
2018-12-27T11:58:12.009Z,6.00
2018-12-27T12:02:17.090Z,5.60
2018-12-27T12:06:22.165Z,5.80
2018-12-27T12:10:27.232Z,5.20
2018-12-27T12:14:32.199Z,5.37
2018-12-27T12:18:37.291Z,5.50
2018-12-27T12:22:43.951Z,6.00
2018-12-27T12:26:49.078Z,5.67
2018-12-27T12:30:54.213Z,5.77
2018-12-27T12:34:59.379Z,5.03
2018-12-27T12:39:16.353Z,5.40
2018-12-27T12:43:21.308Z,5.80
2018-12-27T12:47:26.653Z,5.47
2018-12-27T12:51:33.306Z,5.07
2018-12-27T12:55:38.364Z,5.00
2018-12-27T12:59:43.425Z,6.43
2018-12-27T13:08:05.672Z,5.50
2018-12-27T13:12:10.627Z,5.87
2018-12-27T13:16:15.743Z,4.67
2018-12-27T13:20:20.706Z,5.50
2018-12-27T13:24:25.795Z,5.53
2018-12-27T13:28:30.843Z,5.50
2018-12-27T13:32:35.904Z,5.40
2018-12-27T13:36:40.934Z,5.33
2018-12-27T13:40:46.084Z,5.90
2018-12-27T13:44:51.200Z,5.93
2018-12-27T13:48:56.374Z,5.83
2018-12-27T13:53:01.469Z,6.60
2018-12-27T13:57:06.454Z,5.87
2018-12-27T14:01:11.443Z,6.77
2018-12-27T14:05:16.518Z,6.07
2018-12-27T14:09:21.522Z,6.40
2018-12-27T14:13:26.549Z,7.67
2018-12-27T14:17:31.548Z,6.73
2018-12-27T14:21:36.479Z,7.00
2018-12-27T14:25:41.563Z,7.47
2018-12-27T14:29:46.630Z,7.10
2018-12-27T14:33:51.720Z,6.73
2018-12-27T14:38:12.197Z,7.53
2018-12-27T14:42:17.194Z,7.40
2018-12-27T14:46:22.339Z,7.57
2018-12-27T14:50:27.470Z,7.30
2018-12-27T14:54:32.817Z,7.00
2018-12-27T14:58:37.793Z,7.50
2018-12-27T15:02:42.939Z,8.07
2018-12-27T15:06:48.876Z,7.17
2018-12-27T15:11:00.382Z,8.40
2018-12-27T15:15:05.602Z,7.67
2018-12-27T15:19:10.598Z,8.00
2018-12-27T15:23:15.535Z,8.57
2018-12-27T15:27:20.499Z,8.97
2018-12-27T15:31:25.838Z,8.40
2018-12-27T15:35:30.889Z,7.97
2018-12-27T15:39:35.870Z,8.47
2018-12-27T15:43:40.882Z,9.00
2018-12-27T15:47:45.984Z,8.70
2018-12-27T15:51:50.923Z,8.53
2018-12-27T15:55:56.015Z,9.47
2018-12-27T16:00:01.068Z,8.27
2018-12-27T16:04:06.045Z,9.07
2018-12-27T16:08:11.128Z,7.20
2018-12-27T16:12:16.411Z,7.73
2018-12-27T16:16:21.484Z,8.50
2018-12-27T16:20:27.770Z,8.17
2018-12-27T16:24:32.764Z,9.00
2018-12-27T16:28:38.018Z,7.77
2018-12-27T16:33:02.132Z,8.30
2018-12-27T16:37:09.199Z,8.10
2018-12-27T16:41:19.712Z,8.40
2018-12-27T16:45:24.770Z,9.03
2018-12-27T16:49:29.957Z,9.50
2018-12-27T16:53:35.335Z,11.70
2018-12-27T16:57:40.534Z,13.03
2018-12-27T17:01:45.615Z,13.37
2018-12-27T17:05:50.720Z,9.90
2018-12-27T17:09:55.833Z,9.70
2018-12-27T17:14:20.032Z,11.50
2018-12-27T17:18:25.045Z,9.73
2018-12-27T17:22:30.035Z,9.50
2018-12-27T17:26:35.110Z,11.23
2018-12-27T17:30:40.223Z,12.53
2018-12-27T17:34:45.329Z,12.53
2018-12-27T17:38:50.580Z,10.87
2018-12-27T17:42:55.584Z,11.80
2018-12-27T17:47:00.648Z,12.30
2018-12-27T17:51:05.927Z,10.10
2018-12-27T17:55:10.926Z,11.65
2018-12-27T17:59:16.007Z,11.83
2018-12-27T18:03:20.960Z,11.43
2018-12-27T18:07:30.548Z,10.40
2018-12-27T18:11:38.539Z,12.17
2018-12-27T18:15:43.526Z,10.70
2018-12-27T18:19:48.633Z,10.17
2018-12-27T18:23:53.681Z,10.27
2018-12-27T18:27:58.962Z,13.47
2018-12-27T18:32:04.049Z,12.17
2018-12-27T18:36:09.168Z,19.80
2018-12-27T18:40:14.326Z,14.78
2018-12-27T18:44:19.346Z,13.27
2018-12-27T18:48:24.409Z,13.37
2018-12-27T18:56:59.471Z,13.17
2018-12-27T19:01:04.659Z,14.50
2018-12-27T19:05:09.737Z,15.47
2018-12-27T19:09:14.744Z,14.33
2018-12-27T19:13:19.763Z,13.60
2018-12-27T19:17:29.417Z,15.53
2018-12-27T19:22:10.578Z,15.13
2018-12-27T19:26:15.592Z,15.03
2018-12-27T19:30:20.724Z,15.90
2018-12-27T19:34:25.703Z,16.20
2018-12-27T19:38:30.833Z,22.07
2018-12-27T19:42:35.903Z,16.27
2018-12-27T19:46:41.025Z,17.10
2018-12-27T19:50:46.092Z,17.47
2018-12-27T19:54:51.357Z,16.10
2018-12-27T19:58:56.454Z,16.73
2018-12-27T20:03:01.530Z,16.87
2018-12-27T20:07:06.622Z,13.93
2018-12-27T20:11:11.826Z,20.73
2018-12-27T20:15:16.858Z,17.30
2018-12-27T20:19:21.867Z,18.30
2018-12-27T20:23:27.082Z,16.57
2018-12-27T20:27:32.165Z,14.40
2018-12-27T20:36:06.533Z,13.23
2018-12-27T20:40:11.624Z,14.47
2018-12-27T20:44:16.934Z,16.53
2018-12-27T20:48:22.053Z,16.80
2018-12-27T20:52:27.046Z,18.60
2018-12-27T20:56:32.052Z,18.93
2018-12-27T21:00:38.707Z,19.93
2018-12-27T21:04:43.792Z,17.40
2018-12-27T21:08:48.790Z,18.80
2018-12-27T21:12:54.115Z,17.50
2018-12-27T21:16:59.180Z,19.90
2018-12-27T21:21:04.241Z,19.90
2018-12-27T21:25:09.353Z,17.60
2018-12-27T21:29:14.410Z,16.50
2018-12-27T21:33:19.730Z,16.17
2018-12-27T21:37:24.734Z,15.53
2018-12-27T21:41:29.784Z,18.33
2018-12-27T21:45:34.842Z,17.57
2018-12-27T21:49:39.988Z,18.20
2018-12-27T21:53:45.094Z,17.87
2018-12-27T21:57:50.481Z,18.13
2018-12-27T22:01:55.545Z,17.53
2018-12-27T22:06:00.624Z,16.30
2018-12-27T22:10:06.395Z,16.67
2018-12-27T22:14:11.427Z,19.03
2018-12-27T22:18:16.489Z,17.33
2018-12-27T22:22:21.559Z,20.47
2018-12-27T22:26:26.578Z,18.53
2018-12-27T22:30:50.542Z,16.40
2018-12-27T22:34:55.582Z,17.47
2018-12-27T22:39:00.661Z,17.37
2018-12-27T22:43:05.698Z,17.70
2018-12-27T22:47:10.710Z,21.33
2018-12-27T22:51:15.777Z,23.03
2018-12-27T22:55:28.027Z,20.55
2018-12-27T22:59:33.117Z,19.53
2018-12-27T23:03:38.142Z,20.80
2018-12-27T23:07:43.385Z,20.33
2018-12-27T23:11:48.433Z,18.07
2018-12-27T23:15:53.499Z,16.17
2018-12-27T23:19:58.568Z,17.27
2018-12-27T23:24:03.549Z,15.83
2018-12-27T23:28:08.536Z,15.90
2018-12-27T23:32:13.497Z,16.97
2018-12-27T23:36:18.629Z,16.80
2018-12-27T23:40:23.662Z,16.83
2018-12-27T23:44:28.611Z,16.73
2018-12-27T23:48:33.633Z,17.20
2018-12-27T23:52:38.634Z,17.90
2018-12-27T23:56:43.770Z,16.33
